Time;durP1;ratioP1;P1;durP2;ratioP2;P2;SDS_P1;SDS_P2;PMS_P1;PMS_P2;Temp;Humidity;BMP_temperature;BMP_pressure;BME280_temperature;BME280_humidity;BME280_pressure;Samples;Min_cycle;Max_cycle;Signal;HPM_P1;HPM_P2
2023/02/14 00:01:47;;;;;;;80.13;22.50;;;6.10;99.90;;;;;;5024447;28;20256;-84
2023/02/14 00:04:13;;;;;;;75.43;18.08;;;6.10;99.90;;;;;;5042020;28;20649;-84
2023/02/14 00:06:40;;;;;;;76.82;19.13;;;6.10;99.90;;;;;;5043150;28;20162;-84
2023/02/14 00:09:09;;;;;;;75.30;17.88;;;6.10;99.90;;;;;;5042774;28;20165;-84
2023/02/14 00:11:35;;;;;;;79.47;20.67;;;6.00;99.90;;;;;;5024415;28;20201;-84
2023/02/14 00:16:45;;;;;;;79.10;20.17;;;6.00;99.90;;;;;;5041899;28;20387;-84
2023/02/14 00:19:14;;;;;;;74.47;19.53;;;6.00;99.90;;;;;;5042223;28;20169;-84
2023/02/14 00:21:40;;;;;;;75.28;17.40;;;6.00;99.90;;;;;;5042281;28;20231;-83
2023/02/14 00:24:15;;;;;;;75.78;21.15;;;6.00;99.90;;;;;;5024047;28;20169;-84
2023/02/14 00:26:42;;;;;;;79.80;25.42;;;6.00;99.90;;;;;;5024567;28;20165;-84
2023/02/14 00:29:10;;;;;;;78.40;25.25;;;5.90;99.90;;;;;;5041468;28;20166;-84
2023/02/14 00:31:36;;;;;;;78.97;28.55;;;5.90;99.90;;;;;;5041792;28;20280;-84
2023/02/14 00:34:03;;;;;;;78.87;29.40;;;5.90;99.90;;;;;;5024047;28;20195;-84
2023/02/14 00:36:28;;;;;;;75.05;20.70;;;5.90;99.90;;;;;;5042023;28;20169;-84
2023/02/14 00:38:54;;;;;;;87.77;21.37;;;5.90;99.90;;;;;;5041556;28;20189;-84
2023/02/14 00:41:20;;;;;;;75.57;18.70;;;5.90;99.90;;;;;;5023319;28;20432;-84
2023/02/14 00:43:47;;;;;;;75.38;16.23;;;5.90;99.90;;;;;;5041818;28;20199;-84
2023/02/14 00:46:14;;;;;;;74.28;16.92;;;5.90;99.90;;;;;;5022915;28;20188;-84
2023/02/14 00:48:40;;;;;;;76.82;16.25;;;5.90;99.90;;;;;;5023153;28;20166;-84
2023/02/14 00:51:07;;;;;;;83.13;17.00;;;5.90;99.90;;;;;;5040890;28;20725;-84
2023/02/14 00:53:32;;;;;;;78.97;15.43;;;5.80;99.90;;;;;;5040895;28;20244;-84
2023/02/14 00:56:02;;;;;;;82.40;17.20;;;5.80;99.90;;;;;;5040386;28;20196;-84
2023/02/14 00:58:28;;;;;;;77.82;21.15;;;5.70;99.90;;;;;;5040475;28;20633;-84
2023/02/14 01:00:53;;;;;;;79.23;19.10;;;5.60;99.90;;;;;;5022589;28;20197;-85
2023/02/14 01:03:19;;;;;;;81.70;18.60;;;5.60;99.90;;;;;;5041061;28;20169;-85
2023/02/14 01:05:47;;;;;;;79.57;21.20;;;5.60;99.90;;;;;;5041017;28;20173;-84
2023/02/14 01:08:12;;;;;;;78.97;19.85;;;5.60;99.90;;;;;;5023557;28;20267;-84
2023/02/14 01:10:38;;;;;;;77.77;25.20;;;5.60;99.90;;;;;;5039821;28;20224;-85
2023/02/14 01:13:04;;;;;;;79.68;28.42;;;5.60;99.90;;;;;;5041597;28;20196;-84
2023/02/14 01:15:30;;;;;;;77.43;26.73;;;5.60;99.90;;;;;;5040816;28;20173;-84
2023/02/14 01:17:58;;;;;;;83.68;36.35;;;5.60;99.90;;;;;;5041239;28;20644;-84
2023/02/14 01:20:24;;;;;;;86.10;39.80;;;5.50;99.90;;;;;;5041347;28;20248;-84
2023/02/14 01:22:50;;;;;;;89.50;47.95;;;5.40;99.90;;;;;;5023103;28;20185;-84
2023/02/14 01:25:15;;;;;;;81.93;36.10;;;5.40;99.90;;;;;;5040813;28;20176;-84
2023/02/14 01:27:41;;;;;;;82.30;39.33;;;5.40;99.90;;;;;;5023389;28;20223;-84
2023/02/14 01:30:07;;;;;;;85.67;42.43;;;5.40;99.90;;;;;;5040968;28;20189;-84
2023/02/14 01:32:33;;;;;;;84.03;41.58;;;5.30;99.90;;;;;;5040560;28;20192;-84
2023/02/14 01:34:59;;;;;;;85.17;38.07;;;5.30;99.90;;;;;;5041208;28;20165;-83
2023/02/14 01:37:24;;;;;;;83.20;34.03;;;5.30;99.90;;;;;;5041183;28;20166;-85
2023/02/14 01:39:50;;;;;;;83.90;33.03;;;5.30;99.90;;;;;;5040741;28;20237;-84
2023/02/14 01:42:16;;;;;;;79.70;29.70;;;5.20;99.90;;;;;;5040728;28;20424;-84
2023/02/14 01:44:53;;;;;;;85.10;39.50;;;5.20;99.90;;;;;;5022880;28;20248;-84
2023/02/14 01:47:20;;;;;;;82.40;35.53;;;5.10;99.90;;;;;;5022625;28;20161;-84
2023/02/14 01:49:51;;;;;;;83.60;35.78;;;5.10;99.90;;;;;;5022448;28;20165;-84
2023/02/14 01:52:36;;;;;;;83.07;40.58;;;5.10;99.90;;;;;;5022772;28;20292;-84
2023/02/14 01:55:10;;;;;;;85.82;43.78;;;5.10;99.90;;;;;;5022384;28;20157;-84
2023/02/14 01:57:44;;;;;;;85.82;40.65;;;5.20;99.90;;;;;;5039818;28;20614;-84
2023/02/14 02:02:57;;;;;;;85.05;33.97;;;5.00;99.90;;;;;;5039655;28;20239;-84
2023/02/14 02:05:23;;;;;;;79.40;31.30;;;4.90;99.90;;;;;;5039790;28;20157;-84
2023/02/14 02:07:56;;;;;;;81.43;35.53;;;4.90;99.90;;;;;;5040129;28;20165;-84
2023/02/14 02:10:22;;;;;;;81.20;32.83;;;4.90;99.90;;;;;;5039910;28;20444;-84
2023/02/14 02:12:51;;;;;;;82.87;35.00;;;4.90;99.90;;;;;;5040020;28;20192;-84
2023/02/14 02:15:17;;;;;;;85.45;33.40;;;4.90;99.90;;;;;;5039829;28;20478;-84
2023/02/14 02:18:04;;;;;;;82.70;34.07;;;4.90;99.90;;;;;;5021394;28;20169;-84
2023/02/14 02:20:48;;;;;;;80.20;30.52;;;4.90;99.90;;;;;;5039474;28;20461;-84
2023/02/14 02:23:32;;;;;;;84.53;27.38;;;4.80;99.90;;;;;;5039156;28;20648;-83
2023/02/14 02:26:29;;;;;;;82.90;26.70;;;4.80;99.90;;;;;;5039108;28;20161;-84
2023/02/14 02:29:09;;;;;;;84.32;25.33;;;4.80;99.90;;;;;;5020905;28;20177;-84
2023/02/14 02:32:01;;;;;;;78.00;21.45;;;4.80;99.90;;;;;;5039022;28;20201;-84
2023/02/14 02:34:33;;;;;;;80.97;22.00;;;4.80;99.90;;;;;;4984427;28;20181;-84
2023/02/14 02:37:01;;;;;;;83.10;24.48;;;4.70;99.90;;;;;;5038857;28;20181;-84
2023/02/14 02:39:45;;;;;;;82.85;25.45;;;4.80;99.90;;;;;;5038687;28;20161;-84
2023/02/14 02:42:32;;;;;;;85.03;36.58;;;4.80;99.90;;;;;;5021228;28;20185;-84
2023/02/14 02:45:19;;;;;;;83.53;36.08;;;4.80;99.90;;;;;;5020997;28;20181;-84
2023/02/14 02:47:57;;;;;;;83.05;30.77;;;4.80;99.90;;;;;;5039448;28;20185;-84
2023/02/14 02:53:21;;;;;;;87.05;36.53;;;4.70;99.90;;;;;;5039585;28;20173;-84
2023/02/14 02:58:59;;;;;;;84.53;32.33;;;4.60;99.90;;;;;;5038979;28;20152;-84
2023/02/14 03:01:38;;;;;;;84.18;36.25;;;4.50;99.90;;;;;;5038252;28;20230;-84
2023/02/14 03:06:55;;;;;;;84.53;30.00;;;4.30;99.90;;;;;;5039694;28;20560;-84
2023/02/14 03:09:27;;;;;;;82.35;30.67;;;4.20;99.90;;;;;;5038634;28;20191;-84
2023/02/14 03:12:23;;;;;;;80.20;28.48;;;4.20;99.90;;;;;;5039748;28;20211;-84
2023/02/14 03:15:09;;;;;;;80.30;31.30;;;4.10;99.90;;;;;;5038457;28;20510;-84
2023/02/14 03:17:43;;;;;;;82.20;30.50;;;4.10;99.90;;;;;;5038743;28;20517;-84
2023/02/14 03:20:22;;;;;;;82.40;34.53;;;4.10;99.90;;;;;;5021640;28;20167;-84
2023/02/14 03:22:51;;;;;;;85.05;38.03;;;4.00;99.90;;;;;;5021456;28;20184;-84
2023/02/14 03:25:27;;;;;;;89.07;35.30;;;4.00;99.90;;;;;;5020978;28;20175;-84
2023/02/14 03:28:14;;;;;;;83.55;32.72;;;3.90;99.90;;;;;;5039044;28;20621;-84
2023/02/14 03:31:00;;;;;;;82.70;32.63;;;3.90;99.90;;;;;;5039000;28;20185;-84
2023/02/14 03:33:43;;;;;;;84.15;33.20;;;3.80;99.90;;;;;;4989731;28;20184;-84
2023/02/14 03:36:20;;;;;;;81.85;28.45;;;3.70;99.90;;;;;;5042953;28;20157;-84
2023/02/14 03:39:01;;;;;;;82.43;30.10;;;3.70;99.90;;;;;;5024424;28;20153;-84
2023/02/14 03:41:32;;;;;;;83.40;29.38;;;3.70;99.90;;;;;;5042343;28;20185;-84
2023/02/14 03:46:46;;;;;;;80.97;28.42;;;3.60;99.90;;;;;;5077321;22;20222;-83
2023/02/14 03:49:16;;;;;;;85.35;27.50;;;3.60;99.90;;;;;;5012995;28;20161;-83
2023/02/14 03:51:46;;;;;;;78.10;24.98;;;3.50;99.90;;;;;;5013456;28;20198;-82
2023/02/14 03:54:13;;;;;;;86.40;27.45;;;3.60;99.90;;;;;;5012927;28;20166;-83
2023/02/14 03:57:04;;;;;;;80.53;22.45;;;3.50;99.90;;;;;;4996247;28;20266;-82
2023/02/14 03:59:30;;;;;;;81.40;27.88;;;3.50;99.90;;;;;;5012956;28;20226;-83
2023/02/14 04:02:19;;;;;;;79.72;25.77;;;3.60;99.90;;;;;;5013188;28;20186;-83
2023/02/14 04:04:48;;;;;;;82.95;26.88;;;3.50;99.90;;;;;;4981343;28;20174;-83
2023/02/14 04:07:17;;;;;;;83.28;27.73;;;3.50;99.90;;;;;;5013167;28;20166;-83
2023/02/14 04:09:43;;;;;;;82.57;25.83;;;3.50;99.90;;;;;;4996344;28;20662;-83
2023/02/14 04:12:10;;;;;;;83.32;25.38;;;3.40;99.90;;;;;;4996540;28;20194;-83
2023/02/14 04:14:36;;;;;;;86.28;23.00;;;3.40;99.90;;;;;;4995483;28;20174;-83
2023/02/14 04:19:46;;;;;;;85.90;19.75;;;3.50;99.90;;;;;;5014209;28;20178;-83
2023/02/14 04:22:15;;;;;;;87.00;22.87;;;3.60;99.90;;;;;;4995044;28;20190;-83
2023/02/14 04:24:41;;;;;;;82.40;20.38;;;3.60;99.90;;;;;;4995559;28;20233;-83
2023/02/14 04:27:10;;;;;;;81.43;20.57;;;3.60;99.90;;;;;;4995500;28;20174;-82
2023/02/14 04:29:47;;;;;;;81.38;20.05;;;3.60;99.90;;;;;;5012585;28;20498;-83
2023/02/14 04:32:21;;;;;;;79.95;19.33;;;3.70;99.90;;;;;;5012345;28;20226;-83
2023/02/14 04:34:49;;;;;;;83.65;18.05;;;3.70;99.90;;;;;;4995240;28;20162;-83
2023/02/14 04:37:18;;;;;;;80.03;19.70;;;3.70;99.90;;;;;;5012722;28;20623;-83
2023/02/14 04:39:44;;;;;;;82.70;19.65;;;3.70;99.90;;;;;;4994991;28;20259;-83
2023/02/14 04:42:11;;;;;;;81.20;20.90;;;3.70;99.90;;;;;;5012566;28;20186;-83
2023/02/14 04:44:37;;;;;;;80.63;21.17;;;3.70;99.90;;;;;;5011529;28;20421;-83
2023/02/14 04:47:03;;;;;;;81.27;23.70;;;3.60;99.90;;;;;;5012944;28;20226;-83
2023/02/14 04:49:33;;;;;;;82.97;22.55;;;3.60;99.90;;;;;;4994786;28;20421;-83
2023/02/14 04:51:59;;;;;;;82.20;25.73;;;3.50;99.90;;;;;;5012277;28;20198;-83
2023/02/14 04:54:30;;;;;;;84.47;25.13;;;3.60;99.90;;;;;;5012086;28;20163;-83
2023/02/14 04:56:56;;;;;;;86.43;21.23;;;3.50;99.90;;;;;;4994744;28;20163;-83
2023/02/14 04:59:25;;;;;;;81.80;20.23;;;3.60;99.90;;;;;;4995084;28;20163;-83
2023/02/14 05:01:55;;;;;;;80.30;20.45;;;3.50;99.90;;;;;;4994677;28;20608;-83
2023/02/14 05:04:30;;;;;;;85.45;24.30;;;3.50;99.90;;;;;;4993868;28;20198;-83
2023/02/14 05:06:56;;;;;;;80.22;21.65;;;3.50;99.90;;;;;;5012048;28;20154;-83
2023/02/14 05:09:22;;;;;;;84.00;20.40;;;3.50;99.90;;;;;;4994945;28;20185;-83
2023/02/14 05:11:48;;;;;;;86.50;23.63;;;3.50;99.90;;;;;;4994546;28;20468;-83
2023/02/14 05:14:23;;;;;;;88.75;24.85;;;3.50;99.90;;;;;;5011908;28;20170;-83
2023/02/14 05:16:57;;;;;;;87.93;23.40;;;3.60;99.90;;;;;;4994068;28;20181;-83
2023/02/14 05:19:23;;;;;;;87.78;23.77;;;3.60;99.90;;;;;;4994556;28;20166;-83
2023/02/14 05:21:49;;;;;;;88.53;23.38;;;3.50;99.90;;;;;;5011731;28;20250;-83
2023/02/14 05:24:16;;;;;;;84.60;24.38;;;3.50;99.90;;;;;;4994011;28;20544;-83
2023/02/14 05:26:44;;;;;;;86.90;25.35;;;3.60;99.90;;;;;;5012036;28;20174;-83
2023/02/14 05:29:13;;;;;;;88.22;23.88;;;3.60;99.90;;;;;;5011172;28;20178;-83
2023/02/14 05:31:39;;;;;;;88.47;24.35;;;3.50;99.90;;;;;;4993758;28;20206;-83
2023/02/14 05:34:05;;;;;;;87.45;24.13;;;3.50;99.90;;;;;;5011010;28;20530;-83
2023/02/14 05:36:34;;;;;;;89.63;24.45;;;3.60;99.90;;;;;;5010545;28;20163;-83
2023/02/14 05:39:03;;;;;;;85.68;24.77;;;3.50;99.90;;;;;;5010983;28;20166;-83
2023/02/14 05:41:29;;;;;;;85.45;23.05;;;3.60;99.90;;;;;;5011471;28;20277;-83
2023/02/14 05:43:55;;;;;;;85.88;24.08;;;3.50;99.90;;;;;;4994855;28;20693;-83
2023/02/14 05:46:30;;;;;;;85.78;24.85;;;3.50;99.90;;;;;;4995079;28;20178;-82
2023/02/14 05:48:56;;;;;;;84.30;22.27;;;3.50;99.90;;;;;;4999258;28;20170;-83
2023/02/14 05:51:27;;;;;;;85.00;25.40;;;3.50;99.90;;;;;;4994223;28;20547;-82
2023/02/14 05:53:58;;;;;;;87.40;22.02;;;3.60;99.90;;;;;;4993533;28;20171;-83
2023/02/14 05:56:26;;;;;;;90.88;23.90;;;3.50;99.90;;;;;;5009817;28;20143;-83
2023/02/14 05:58:52;;;;;;;87.35;23.80;;;3.50;99.90;;;;;;4993813;28;20226;-83
2023/02/14 06:01:18;;;;;;;89.55;24.77;;;3.50;99.90;;;;;;5010251;28;20201;-83
2023/02/14 06:03:44;;;;;;;86.10;21.23;;;3.50;99.90;;;;;;5010247;28;20175;-83
2023/02/14 06:06:10;;;;;;;87.80;22.90;;;3.50;99.90;;;;;;5010918;28;20414;-83
2023/02/14 06:08:36;;;;;;;88.73;24.67;;;3.50;99.90;;;;;;5010073;28;20925;-83
2023/02/14 06:11:02;;;;;;;91.40;27.20;;;3.50;99.90;;;;;;4992988;28;20515;-83
2023/02/14 06:13:27;;;;;;;90.13;22.07;;;3.60;99.90;;;;;;5010801;28;20492;-82
2023/02/14 06:16:11;;;;;;;87.90;23.87;;;3.60;99.90;;;;;;4993412;28;20441;-83
2023/02/14 06:19:00;;;;;;;91.53;24.85;;;3.60;99.90;;;;;;5010222;28;20413;-83
2023/02/14 06:21:38;;;;;;;88.07;22.95;;;3.60;99.90;;;;;;5010605;28;20210;-83
2023/02/14 06:24:07;;;;;;;86.45;23.27;;;3.60;99.90;;;;;;4993177;28;20178;-83
2023/02/14 06:26:34;;;;;;;89.07;23.25;;;3.70;99.90;;;;;;5011076;28;20167;-82
2023/02/14 06:29:02;;;;;;;93.70;26.52;;;3.60;99.90;;;;;;4993641;28;20177;-82
2023/02/14 06:31:28;;;;;;;86.75;25.00;;;3.60;99.90;;;;;;4992869;28;20681;-82
2023/02/14 06:33:57;;;;;;;93.27;28.57;;;3.60;99.90;;;;;;4992867;28;20197;-82
2023/02/14 06:36:23;;;;;;;93.35;27.00;;;3.60;99.90;;;;;;4992403;28;20414;-82
2023/02/14 06:38:49;;;;;;;89.40;24.60;;;3.60;99.90;;;;;;4991895;28;20189;-82
2023/02/14 06:41:16;;;;;;;92.67;26.20;;;3.70;99.90;;;;;;5010319;28;20681;-82
2023/02/14 06:43:44;;;;;;;92.53;26.92;;;3.60;99.90;;;;;;5009816;28;20410;-82
2023/02/14 06:46:12;;;;;;;93.75;27.05;;;3.60;99.90;;;;;;5010171;28;20198;-82
2023/02/14 06:48:38;;;;;;;91.05;26.65;;;3.70;99.90;;;;;;4993378;28;20241;-82
2023/02/14 06:51:04;;;;;;;88.20;27.10;;;3.70;99.90;;;;;;4992738;28;20209;-82
2023/02/14 06:53:30;;;;;;;93.77;25.83;;;3.70;99.90;;;;;;4992577;28;20171;-83
2023/02/14 06:55:56;;;;;;;90.07;27.88;;;3.70;99.90;;;;;;4992542;28;20440;-82
2023/02/14 06:58:22;;;;;;;92.40;27.37;;;3.70;99.90;;;;;;4991811;28;20175;-82
2023/02/14 07:01:00;;;;;;;96.43;27.37;;;3.70;99.90;;;;;;5009103;28;20437;-82
2023/02/14 07:03:26;;;;;;;90.20;26.70;;;3.70;99.90;;;;;;4992295;28;20409;-82
2023/02/14 07:05:52;;;;;;;88.97;22.30;;;3.60;99.90;;;;;;4992819;28;20173;-82
2023/02/14 07:08:19;;;;;;;93.43;27.27;;;3.60;99.90;;;;;;4991582;28;20414;-82
2023/02/14 07:10:45;;;;;;;89.43;25.15;;;3.70;99.90;;;;;;4992003;28;20194;-82
2023/02/14 07:13:11;;;;;;;86.93;25.42;;;3.70;99.90;;;;;;4992532;28;20158;-82
2023/02/14 07:15:37;;;;;;;89.00;23.30;;;3.70;99.90;;;;;;4992841;28;20166;-82
2023/02/14 07:18:10;;;;;;;92.90;27.63;;;3.70;99.90;;;;;;5012736;28;20163;-82
2023/02/14 07:20:36;;;;;;;91.03;26.35;;;3.70;99.90;;;;;;4991864;28;20234;-82
2023/02/14 07:23:02;;;;;;;94.82;28.45;;;3.70;99.90;;;;;;5009481;28;20167;-82
2023/02/14 07:25:37;;;;;;;90.63;25.20;;;3.80;99.90;;;;;;4992183;28;20213;-83
2023/02/14 07:28:03;;;;;;;97.10;24.80;;;3.80;99.90;;;;;;4991605;28;20549;-82
2023/02/14 07:30:30;;;;;;;96.00;27.73;;;3.80;99.90;;;;;;4991053;28;20198;-82
2023/02/14 07:32:56;;;;;;;94.70;26.50;;;3.80;99.90;;;;;;5008899;28;20453;-82
2023/02/14 07:35:22;;;;;;;93.82;28.63;;;3.80;99.90;;;;;;5009061;28;20159;-82
2023/02/14 07:37:49;;;;;;;91.37;23.80;;;3.90;99.90;;;;;;5008929;28;20208;-82
2023/02/14 07:40:15;;;;;;;90.70;23.30;;;3.90;99.90;;;;;;4991762;28;20313;-82
2023/02/14 07:42:45;;;;;;;100.00;25.03;;;3.90;99.90;;;;;;4992016;28;20191;-82
2023/02/14 07:45:11;;;;;;;95.40;24.60;;;3.90;99.90;;;;;;4990561;28;20202;-82
2023/02/14 07:47:37;;;;;;;108.50;25.40;;;3.90;99.90;;;;;;4991996;28;20610;-82
2023/02/14 07:50:06;;;;;;;92.87;24.70;;;4.00;99.90;;;;;;5008457;28;20178;-82
2023/02/14 07:52:35;;;;;;;95.65;23.42;;;4.00;99.90;;;;;;4991080;28;20191;-82
2023/02/14 07:55:01;;;;;;;98.47;24.10;;;4.10;99.90;;;;;;5009121;28;20253;-82
2023/02/14 07:57:32;;;;;;;101.37;24.60;;;4.10;99.90;;;;;;5007825;28;20658;-83
2023/02/14 07:59:57;;;;;;;97.50;28.02;;;4.10;99.90;;;;;;5008591;28;20219;-82
2023/02/14 08:02:23;;;;;;;107.63;26.87;;;4.20;99.90;;;;;;5009604;28;20182;-83
2023/02/14 08:04:49;;;;;;;96.60;25.07;;;4.20;99.90;;;;;;5008461;28;20170;-83
2023/02/14 08:07:18;;;;;;;99.60;25.73;;;4.30;99.90;;;;;;4991003;28;20179;-83
2023/02/14 08:09:43;;;;;;;96.10;26.42;;;4.30;99.90;;;;;;5009038;28;20190;-83
2023/02/14 08:16:03;;;;;;;97.65;24.90;;;4.40;99.90;;;;;;5008825;28;20154;-83
2023/02/14 08:17:40;;;;;;;104.00;23.48;;;4.50;99.90;;;;;;5009283;28;20213;-83
2023/02/14 08:20:06;;;;;;;91.03;23.60;;;4.50;99.90;;;;;;4993192;28;20178;-83
2023/02/14 08:22:32;;;;;;;102.45;25.33;;;4.60;99.90;;;;;;5012693;28;20512;-83
2023/02/14 08:24:58;;;;;;;95.47;25.80;;;4.60;99.90;;;;;;5012487;28;20175;-83
2023/02/14 08:27:24;;;;;;;97.83;26.20;;;4.60;99.90;;;;;;5013122;28;20174;-84
2023/02/14 08:29:50;;;;;;;98.60;30.10;;;4.70;99.90;;;;;;4995143;28;20266;-84
2023/02/14 08:32:19;;;;;;;102.10;27.27;;;4.70;99.90;;;;;;5012879;28;20496;-84
2023/02/14 08:34:46;;;;;;;98.93;26.20;;;4.80;99.90;;;;;;5013144;28;20422;-84
2023/02/14 08:37:12;;;;;;;97.25;26.83;;;4.80;99.90;;;;;;4995934;28;20250;-84
2023/02/14 08:39:43;;;;;;;98.38;25.48;;;4.80;99.90;;;;;;4996302;28;20171;-84
2023/02/14 08:42:16;;;;;;;116.70;47.75;;;4.80;99.90;;;;;;5013535;28;20201;-84
2023/02/14 08:44:45;;;;;;;95.85;24.33;;;4.90;99.90;;;;;;4995982;28;20169;-84
2023/02/14 08:47:14;;;;;;;96.85;31.67;;;4.90;99.90;;;;;;4997404;28;20194;-83
2023/02/14 08:49:43;;;;;;;96.40;26.33;;;5.00;99.90;;;;;;5000023;28;20174;-84
2023/02/14 08:52:09;;;;;;;98.15;29.40;;;5.10;99.90;;;;;;4994396;28;20195;-83
2023/02/14 08:54:35;;;;;;;97.70;25.07;;;5.10;99.90;;;;;;4994493;28;20186;-83
2023/02/14 08:57:02;;;;;;;102.23;29.43;;;5.10;99.90;;;;;;5011364;28;20554;-83
2023/02/14 08:59:31;;;;;;;99.45;27.33;;;5.10;99.90;;;;;;5011617;28;20159;-83
2023/02/14 09:02:06;;;;;;;97.03;28.35;;;5.20;99.90;;;;;;5011976;28;20187;-83
2023/02/14 09:04:35;;;;;;;94.28;26.83;;;5.20;99.90;;;;;;4994016;28;20170;-83
2023/02/14 09:07:03;;;;;;;100.28;25.50;;;5.30;99.90;;;;;;5011142;28;20231;-83
2023/02/14 09:09:30;;;;;;;102.93;28.10;;;5.40;99.90;;;;;;4993691;28;20170;-83
2023/02/14 09:12:02;;;;;;;95.95;27.85;;;5.40;99.90;;;;;;4994125;28;20217;-83
2023/02/14 09:14:30;;;;;;;101.90;27.92;;;5.40;99.90;;;;;;4994881;28;20163;-83
2023/02/14 09:16:57;;;;;;;99.47;27.58;;;5.50;99.90;;;;;;5010682;28;20162;-83
2023/02/14 09:19:26;;;;;;;100.13;30.13;;;5.50;99.90;;;;;;4994584;28;20174;-83
2023/02/14 09:22:02;;;;;;;100.18;28.50;;;5.50;99.90;;;;;;4993720;28;20245;-83
2023/02/14 09:24:32;;;;;;;94.10;27.80;;;5.60;99.90;;;;;;4993569;28;20677;-83
2023/02/14 09:26:58;;;;;;;94.78;27.02;;;5.70;99.90;;;;;;5011547;28;20242;-83
2023/02/14 09:29:35;;;;;;;102.40;27.58;;;5.70;99.90;;;;;;4993878;28;20177;-83
2023/02/14 09:32:01;;;;;;;95.28;32.10;;;5.80;99.90;;;;;;4992869;28;20249;-83
2023/02/14 09:40:01;;;;;;;101.82;24.63;;;6.00;99.90;;;;;;5010844;28;20161;-83
2023/02/14 09:42:42;;;;;;;96.20;24.80;;;6.10;99.90;;;;;;4993481;28;20182;-83
2023/02/14 09:45:11;;;;;;;95.20;25.13;;;6.10;99.90;;;;;;5064197;23;20229;-84
2023/02/14 09:47:40;;;;;;;92.50;23.27;;;6.30;99.90;;;;;;5003388;28;20170;-83
2023/02/14 09:50:19;;;;;;;97.18;24.55;;;6.30;99.90;;;;;;5020034;28;20161;-83
2023/02/14 09:52:51;;;;;;;95.43;24.98;;;6.40;99.90;;;;;;5020393;28;20185;-84
2023/02/14 09:55:17;;;;;;;99.70;25.20;;;6.40;99.90;;;;;;5003058;28;20166;-84
2023/02/14 09:57:56;;;;;;;98.88;24.13;;;6.60;99.90;;;;;;5021118;28;20217;-84
2023/02/14 10:00:33;;;;;;;93.32;25.73;;;6.60;99.90;;;;;;5020404;28;20208;-84
2023/02/14 10:03:33;;;;;;;96.60;27.33;;;6.80;99.90;;;;;;5018881;28;20220;-83
2023/02/14 10:06:09;;;;;;;95.93;28.83;;;6.90;99.90;;;;;;5019877;28;20182;-84
2023/02/14 10:08:42;;;;;;;92.65;29.42;;;7.00;99.90;;;;;;5019953;28;20181;-83
2023/02/14 10:11:21;;;;;;;101.18;30.55;;;7.20;99.90;;;;;;5002215;28;20577;-83
2023/02/14 10:14:22;;;;;;;96.32;29.50;;;7.20;99.90;;;;;;5001777;28;20161;-83
2023/02/14 10:17:14;;;;;;;92.85;27.13;;;7.20;99.90;;;;;;4987584;28;20261;-83
2023/02/14 10:20:01;;;;;;;96.28;25.85;;;7.30;99.90;;;;;;5019955;28;20200;-83
2023/02/14 10:22:45;;;;;;;94.03;27.67;;;7.40;99.90;;;;;;5020051;28;20186;-83
2023/02/14 10:25:23;;;;;;;105.55;28.50;;;7.50;99.90;;;;;;5019190;28;20165;-84
2023/02/14 10:27:49;;;;;;;93.45;26.80;;;7.60;99.90;;;;;;5002168;28;20194;-84
2023/02/14 10:30:18;;;;;;;94.82;23.40;;;7.70;99.90;;;;;;5020593;28;20186;-84
2023/02/14 10:32:46;;;;;;;95.80;22.85;;;7.80;99.90;;;;;;5001829;28;20190;-84
2023/02/14 10:35:37;;;;;;;95.68;22.50;;;7.90;99.90;;;;;;5018164;28;20169;-84
2023/02/14 10:38:16;;;;;;;98.47;22.00;;;8.00;99.90;;;;;;5002294;28;20155;-84
2023/02/14 10:40:54;;;;;;;95.95;20.45;;;8.10;99.90;;;;;;5018502;28;20629;-84
2023/02/14 10:43:43;;;;;;;92.18;22.58;;;8.20;99.90;;;;;;5019389;28;20201;-84
2023/02/14 10:46:30;;;;;;;92.15;20.10;;;8.30;99.90;;;;;;5019271;28;20239;-84
2023/02/14 10:49:08;;;;;;;89.85;19.50;;;8.40;99.90;;;;;;5017782;28;20166;-84
2023/02/14 10:51:46;;;;;;;86.68;18.20;;;8.60;99.90;;;;;;5018972;28;20193;-84
2023/02/14 10:54:25;;;;;;;92.95;21.38;;;8.60;98.20;;;;;;5019288;28;20170;-84
2023/02/14 10:56:59;;;;;;;87.47;19.85;;;8.60;95.70;;;;;;5002655;28;20162;-84
2023/02/14 10:59:41;;;;;;;90.10;20.05;;;8.70;95.20;;;;;;5019082;28;20173;-84
2023/02/14 11:02:12;;;;;;;85.95;18.90;;;8.80;93.20;;;;;;5019437;28;20247;-85
2023/02/14 11:04:40;;;;;;;90.38;19.35;;;8.90;92.20;;;;;;5020035;28;20157;-84
2023/02/14 11:07:13;;;;;;;92.57;19.35;;;9.00;90.40;;;;;;5019135;28;20612;-84
2023/02/14 11:09:39;;;;;;;91.05;19.85;;;9.00;88.70;;;;;;5018145;28;20161;-84
2023/02/14 11:12:07;;;;;;;97.83;21.10;;;9.10;88.40;;;;;;5001223;28;20569;-84
2023/02/14 11:14:38;;;;;;;86.53;18.25;;;9.20;81.50;;;;;;5001283;28;20216;-84
2023/02/14 11:17:28;;;;;;;92.40;20.35;;;9.30;72.90;;;;;;5019590;28;20146;-84
2023/02/14 11:20:08;;;;;;;87.88;18.50;;;9.40;74.10;;;;;;5001493;28;20185;-84
2023/02/14 11:22:39;;;;;;;90.00;19.90;;;9.60;67.70;;;;;;5019768;28;20181;-84
2023/02/14 11:25:24;;;;;;;88.35;19.92;;;9.60;62.50;;;;;;5001704;28;20182;-84
2023/02/14 11:28:01;;;;;;;88.53;18.42;;;9.60;57.30;;;;;;5001252;28;20201;-84
2023/02/14 11:30:38;;;;;;;85.72;16.92;;;9.70;56.70;;;;;;5018521;28;20193;-84
2023/02/14 11:33:04;;;;;;;92.15;18.48;;;9.80;57.70;;;;;;5018692;28;20174;-84
2023/02/14 11:35:34;;;;;;;89.07;17.52;;;10.00;49.50;;;;;;5001811;28;20170;-84
2023/02/14 11:38:29;;;;;;;89.95;17.67;;;10.10;41.90;;;;;;5018654;28;20518;-84
2023/02/14 11:40:57;;;;;;;90.00;19.90;;;10.10;42.40;;;;;;5019188;28;20553;-84
2023/02/14 11:43:43;;;;;;;90.95;20.27;;;10.30;38.30;;;;;;5001625;28;20166;-84
2023/02/14 11:46:21;;;;;;;88.93;19.33;;;10.30;32.80;;;;;;5001771;28;20181;-84
2023/02/14 11:49:27;;;;;;;90.88;18.63;;;10.40;31.60;;;;;;5017676;28;20565;-84
2023/02/14 11:51:56;;;;;;;85.38;17.05;;;10.50;28.20;;;;;;5017541;28;20208;-84
2023/02/14 11:54:39;;;;;;;87.18;18.77;;;10.50;31.80;;;;;;5020326;28;20162;-84
2023/02/14 11:57:18;;;;;;;85.60;15.73;;;10.60;28.70;;;;;;5022894;28;20159;-84
2023/02/14 11:59:48;;;;;;;85.15;16.80;;;10.60;33.80;;;;;;5021479;28;20158;-84
2023/02/14 12:02:31;;;;;;;85.32;16.58;;;10.80;26.70;;;;;;5005133;28;20234;-84
2023/02/14 12:05:04;;;;;;;86.18;18.13;;;10.90;24.00;;;;;;5023113;28;20208;-84
2023/02/14 12:07:40;;;;;;;91.97;18.98;;;10.90;23.00;;;;;;5021935;28;20198;-84
2023/02/14 12:10:17;;;;;;;85.82;16.90;;;10.90;19.10;;;;;;5022402;28;20150;-84
2023/02/14 12:13:17;;;;;;;86.03;16.88;;;10.90;21.00;;;;;;5022187;28;20178;-84
2023/02/14 12:15:43;;;;;;;86.07;15.35;;;10.90;20.20;;;;;;5021663;28;20181;-84
2023/02/14 12:19:06;;;;;;;86.47;15.93;;;10.80;20.10;;;;;;5021350;28;20174;-84
2023/02/14 12:21:40;;;;;;;84.40;15.93;;;10.90;23.20;;;;;;4961626;29;20200;-84
2023/02/14 12:24:23;;;;;;;84.15;17.00;;;10.90;17.10;;;;;;4961489;29;20722;-84
2023/02/14 12:27:19;;;;;;;84.82;17.60;;;11.00;16.50;;;;;;4983050;28;20289;-84
2023/02/14 12:30:16;;;;;;;83.47;17.80;;;10.90;14.70;;;;;;5020916;28;20166;-84
2023/02/14 12:32:49;;;;;;;82.30;15.70;;;11.00;11.80;;;;;;5004798;28;20201;-84
2023/02/14 12:35:37;;;;;;;83.03;16.35;;;11.00;12.80;;;;;;5003916;28;20572;-84
2023/02/14 12:38:26;;;;;;;85.38;17.75;;;11.20;8.60;;;;;;4974427;28;20178;-84
2023/02/14 12:40:54;;;;;;;83.15;17.67;;;11.20;5.70;;;;;;5021583;28;20178;-84
2023/02/14 12:43:42;;;;;;;84.75;18.20;;;11.30;8.40;;;;;;5021750;28;20170;-84
2023/02/14 12:46:12;;;;;;;93.05;18.58;;;11.20;3.10;;;;;;5003765;28;20189;-84
2023/02/14 12:48:53;;;;;;;89.25;19.60;;;11.20;11.40;;;;;;5020653;28;20169;-84
2023/02/14 12:51:42;;;;;;;86.57;17.77;;;11.20;6.60;;;;;;5021195;28;20292;-84
2023/02/14 12:54:28;;;;;;;81.88;17.58;;;11.30;6.30;;;;;;5021660;28;20233;-84
2023/02/14 12:56:59;;;;;;;85.97;16.40;;;11.30;6.50;;;;;;5020376;28;20171;-84
2023/02/14 12:59:33;;;;;;;81.93;17.35;;;11.30;4.80;;;;;;5020001;28;20569;-84
2023/02/14 13:02:21;;;;;;;82.35;16.95;;;11.30;7.40;;;;;;5021577;28;20186;-84
2023/02/14 13:05:17;;;;;;;84.70;16.55;;;11.20;8.70;;;;;;5004282;28;20511;-84
2023/02/14 13:08:21;;;;;;;;;;;;;;;;;;;;;
2023/02/14 13:11:28;;;;;;;88.13;17.52;;;11.10;10.20;;;;;;5020888;28;20269;-84
2023/02/14 13:14:08;;;;;;;85.05;17.45;;;11.00;11.70;;;;;;5021284;28;20165;-84
2023/02/14 13:16:53;;;;;;;84.97;17.00;;;11.00;14.50;;;;;;5022317;28;20184;-83
2023/02/14 13:20:18;;;;;;;90.07;18.63;;;11.10;14.90;;;;;;5004475;28;20176;-83
2023/02/14 13:22:45;;;;;;;90.07;18.45;;;11.10;15.20;;;;;;5020715;28;20256;-84
2023/02/14 13:25:50;;;;;;;84.72;17.95;;;11.20;15.40;;;;;;5003827;28;20237;-84
2023/02/14 13:28:18;;;;;;;86.38;19.17;;;11.20;12.80;;;;;;5003957;28;20264;-84
2023/02/14 13:30:44;;;;;;;81.35;16.38;;;11.30;13.60;;;;;;5003662;28;20190;-84
2023/02/14 13:33:35;;;;;;;88.22;17.83;;;11.30;9.60;;;;;;5020938;28;20208;-84